createdAt,value
2022-08-12T00:00:17.897Z,73.50
2022-08-12T00:03:22.658Z,73.30
2022-08-12T00:06:28.456Z,73.60
2022-08-12T00:09:32.724Z,75.30
2022-08-12T00:12:37.399Z,75.70
2022-08-12T00:15:41.911Z,75.70
2022-08-12T00:18:46.014Z,75.80
2022-08-12T00:21:51.473Z,75.90
2022-08-12T00:24:55.472Z,74.30
2022-08-12T00:27:59.718Z,74.10
2022-08-12T00:31:03.708Z,72.70
2022-08-12T00:34:07.595Z,73.70
2022-08-12T00:37:14.527Z,75.10
2022-08-12T00:40:19.292Z,74.70
2022-08-12T00:43:08.846Z,74.60
2022-08-12T00:46:13.683Z,73.10
2022-08-12T00:49:02.514Z,73.90
2022-08-12T00:52:07.221Z,75.10
2022-08-12T00:54:57.436Z,75.00
2022-08-12T00:57:48.704Z,74.70
2022-08-12T01:00:36.434Z,74.10
2022-08-12T01:03:23.701Z,74.40
2022-08-12T01:06:25.646Z,74.10
2022-08-12T01:09:30.181Z,74.30
2022-08-12T01:12:18.770Z,73.90
2022-08-12T01:15:06.624Z,74.70
2022-08-12T01:17:53.266Z,75.30
2022-08-12T01:20:44.020Z,74.30
2022-08-12T01:23:43.486Z,73.60
2022-08-12T01:26:33.874Z,75.30
2022-08-12T01:29:25.680Z,74.30
2022-08-12T01:32:15.273Z,74.70
2022-08-12T01:35:05.699Z,73.70
2022-08-12T01:37:58.614Z,75.00
2022-08-12T01:40:47.841Z,75.90
2022-08-12T01:43:37.695Z,75.30
2022-08-12T01:46:38.055Z,73.20
2022-08-12T01:49:48.231Z,74.60
2022-08-12T01:52:43.388Z,75.30
2022-08-12T01:55:34.185Z,75.10
2022-08-12T01:58:28.406Z,76.00
2022-08-12T02:01:16.613Z,76.40
2022-08-12T02:04:32.823Z,76.40
2022-08-12T02:07:48.706Z,76.60
2022-08-12T02:11:02.131Z,76.50
2022-08-12T02:14:11.306Z,76.90
2022-08-12T02:17:08.967Z,77.80
2022-08-12T02:20:11.038Z,78.00
2022-08-12T02:22:58.479Z,78.30
2022-08-12T02:25:46.765Z,79.10
2022-08-12T02:28:34.092Z,80.40
2022-08-12T02:31:21.374Z,80.60
2022-08-12T02:34:12.501Z,81.30
2022-08-12T02:37:03.511Z,80.20
2022-08-12T02:39:51.678Z,79.00
2022-08-12T02:42:45.132Z,78.80
2022-08-12T02:45:38.055Z,78.70
2022-08-12T02:48:30.154Z,78.70
2022-08-12T02:51:20.959Z,78.60
2022-08-12T02:54:08.653Z,78.40
2022-08-12T02:56:55.961Z,78.40
2022-08-12T02:59:43.311Z,78.90
2022-08-12T03:02:32.356Z,78.20
2022-08-12T03:05:24.225Z,80.40
2022-08-12T03:08:29.880Z,79.20
2022-08-12T03:11:26.311Z,78.50
2022-08-12T03:14:17.531Z,78.90
2022-08-12T03:17:14.774Z,79.00
2022-08-12T03:20:09.738Z,79.00
2022-08-12T03:22:59.889Z,79.70
2022-08-12T03:25:50.512Z,80.00
2022-08-12T03:28:54.158Z,80.30
2022-08-12T03:31:41.084Z,81.10
2022-08-12T03:34:29.829Z,82.50
2022-08-12T03:37:17.856Z,82.70
2022-08-12T03:40:08.186Z,83.60
2022-08-12T03:43:14.041Z,84.50
2022-08-12T03:46:25.119Z,85.30
2022-08-12T03:49:29.730Z,86.30
2022-08-12T03:52:34.354Z,86.80
2022-08-12T03:55:38.586Z,87.20
2022-08-12T03:58:45.027Z,87.70
2022-08-12T04:01:40.819Z,87.30
2022-08-12T04:04:34.145Z,87.50
2022-08-12T04:07:21.835Z,89.30
2022-08-12T04:10:09.253Z,90.00
2022-08-12T04:13:15.438Z,90.00
2022-08-12T04:16:06.582Z,89.30
2022-08-12T04:18:53.833Z,88.90
2022-08-12T04:22:00.871Z,88.10
2022-08-12T04:24:50.701Z,87.80
2022-08-12T04:27:37.641Z,86.70
2022-08-12T04:30:32.434Z,86.50
2022-08-12T04:33:21.476Z,87.00
2022-08-12T04:36:08.624Z,88.20
2022-08-12T04:38:59.532Z,87.40
2022-08-12T04:41:50.342Z,88.60
2022-08-12T04:44:45.419Z,89.70
2022-08-12T04:47:32.521Z,90.20
2022-08-12T04:50:34.373Z,90.40
2022-08-12T04:53:23.515Z,90.60
2022-08-12T04:56:11.354Z,91.00
2022-08-12T04:58:58.992Z,91.20
2022-08-12T05:01:51.602Z,91.30
2022-08-12T05:04:39.133Z,91.50
2022-08-12T05:07:27.671Z,91.60
2022-08-12T05:10:14.534Z,91.80
2022-08-12T05:13:03.538Z,91.90
2022-08-12T05:16:03.784Z,92.20
2022-08-12T05:18:51.959Z,92.00
2022-08-12T05:21:38.930Z,91.60
2022-08-12T05:24:30.002Z,90.40
2022-08-12T05:27:18.097Z,88.50
2022-08-12T05:30:09.269Z,87.20
2022-08-12T05:32:59.942Z,84.90
2022-08-12T05:35:50.143Z,82.70
2022-08-12T05:38:54.930Z,81.40
2022-08-12T05:41:44.435Z,80.60
2022-08-12T05:44:31.149Z,78.30
2022-08-12T05:47:17.721Z,75.70
2022-08-12T05:50:05.532Z,73.90
2022-08-12T05:52:53.007Z,73.70
2022-08-12T05:55:41.157Z,73.60
2022-08-12T05:58:30.968Z,72.50
2022-08-12T06:02:10.635Z,70.90
2022-08-12T06:04:24.720Z,70.60
2022-08-12T06:08:00.868Z,69.60
2022-08-12T06:10:32.519Z,69.80
2022-08-12T06:13:28.339Z,68.70
2022-08-12T06:16:28.642Z,67.90
2022-08-12T06:19:16.033Z,66.70
2022-08-12T06:22:03.009Z,66.40
2022-08-12T06:24:49.849Z,66.00
2022-08-12T06:27:43.124Z,65.40
2022-08-12T06:31:14.898Z,64.90
2022-08-12T06:35:23.704Z,63.30
2022-08-12T06:37:07.330Z,62.40
2022-08-12T06:39:53.911Z,61.50
2022-08-12T06:42:51.425Z,60.40
2022-08-12T06:45:46.918Z,60.20
2022-08-12T06:48:34.158Z,59.60
2022-08-12T06:51:22.468Z,59.20
2022-08-12T06:54:10.508Z,59.50
2022-08-12T06:57:04.304Z,59.70
2022-08-12T06:59:52.422Z,59.80
2022-08-12T07:02:39.601Z,60.00
2022-08-12T07:05:26.771Z,59.40
2022-08-12T07:08:16.888Z,59.40
2022-08-12T07:11:06.007Z,59.30
2022-08-12T07:14:11.425Z,58.90
2022-08-12T07:17:02.278Z,58.70
2022-08-12T07:19:50.029Z,58.60
2022-08-12T07:22:36.585Z,58.50
2022-08-12T07:25:40.384Z,57.70
2022-08-12T07:28:29.429Z,57.80
2022-08-12T07:31:17.353Z,57.40
2022-08-12T07:34:05.657Z,57.60
2022-08-12T07:36:52.482Z,57.80
2022-08-12T07:39:50.362Z,57.00
2022-08-12T07:42:47.422Z,56.90
2022-08-12T07:45:34.261Z,56.60
2022-08-12T07:48:21.666Z,56.30
2022-08-12T07:51:09.458Z,55.30
2022-08-12T07:54:03.135Z,56.40
2022-08-12T07:56:50.196Z,56.30
2022-08-12T07:59:38.578Z,55.40
2022-08-12T08:02:26.680Z,55.70
2022-08-12T08:05:16.187Z,55.20
2022-08-12T08:08:03.763Z,55.20
2022-08-12T08:10:51.977Z,54.70
2022-08-12T08:13:39.513Z,54.00
2022-08-12T08:16:27.234Z,53.70
2022-08-12T08:19:19.162Z,52.00
2022-08-12T08:22:05.521Z,52.60
2022-08-12T08:24:57.681Z,51.60
2022-08-12T08:27:46.752Z,52.20
2022-08-12T08:30:34.683Z,51.70
2022-08-12T08:34:04.205Z,51.80
2022-08-12T08:36:30.344Z,51.80
2022-08-12T08:39:17.909Z,52.50
2022-08-12T08:42:22.451Z,52.30
2022-08-12T08:45:12.992Z,52.60
2022-08-12T08:48:00.597Z,52.60
2022-08-12T08:50:57.725Z,52.60
2022-08-12T08:53:52.765Z,52.20
2022-08-12T08:56:49.884Z,52.10
2022-08-12T08:59:37.232Z,52.80
2022-08-12T09:02:23.719Z,52.70
2022-08-12T09:05:15.345Z,51.70
2022-08-12T09:12:07.279Z,52.50
2022-08-12T09:14:37.197Z,51.90
2022-08-12T09:17:24.096Z,51.80
2022-08-12T09:20:16.486Z,51.90
2022-08-12T09:26:15.975Z,52.30
2022-08-12T09:29:12.192Z,52.20
2022-08-12T09:32:03.888Z,52.40
2022-08-12T09:34:55.080Z,51.80
2022-08-12T09:37:57.673Z,51.30
2022-08-12T09:40:57.030Z,51.40
2022-08-12T09:44:05.097Z,52.30
2022-08-12T09:46:52.290Z,51.70
2022-08-12T09:49:42.528Z,51.20
2022-08-12T09:52:32.029Z,51.30
2022-08-12T09:56:05.544Z,50.80
2022-08-12T09:58:57.990Z,50.60
2022-08-12T10:02:42.925Z,51.50
2022-08-12T10:04:51.530Z,51.10
2022-08-12T10:07:39.616Z,50.40
2022-08-12T10:10:30.462Z,50.40
2022-08-12T10:13:40.232Z,50.70
2022-08-12T10:16:39.138Z,51.10
2022-08-12T10:19:36.229Z,51.70
2022-08-12T10:22:40.487Z,50.80
2022-08-12T10:26:35.488Z,50.70
2022-08-12T10:30:02.041Z,50.00
2022-08-12T10:32:43.766Z,50.20
2022-08-12T10:35:37.928Z,49.50
2022-08-12T10:38:34.807Z,48.50
2022-08-12T10:41:57.730Z,49.00
2022-08-12T10:44:46.864Z,48.90
2022-08-12T10:48:16.102Z,48.70
2022-08-12T10:51:00.821Z,48.40
2022-08-12T10:53:50.578Z,48.40
2022-08-12T10:56:40.571Z,48.70
2022-08-12T11:00:32.077Z,48.90
2022-08-12T11:04:27.161Z,49.00
2022-08-12T11:07:10.320Z,48.80
2022-08-12T11:08:51.672Z,48.20
2022-08-12T11:12:36.949Z,48.80
2022-08-12T11:14:51.499Z,48.20
2022-08-12T11:17:52.964Z,48.40
2022-08-12T11:20:44.904Z,48.00
2022-08-12T11:23:36.230Z,48.50
2022-08-12T11:26:24.282Z,48.80
2022-08-12T11:29:22.386Z,48.50
2022-08-12T11:32:09.648Z,48.10
2022-08-12T11:34:59.617Z,48.40
2022-08-12T11:37:55.871Z,48.00
2022-08-12T11:40:45.724Z,48.00
2022-08-12T11:43:50.766Z,47.90
2022-08-12T11:46:42.028Z,47.70
2022-08-12T11:49:32.366Z,47.80
2022-08-12T11:52:54.893Z,47.40
2022-08-12T11:55:29.460Z,47.70
2022-08-12T11:59:38.216Z,47.90
2022-08-12T12:02:02.186Z,48.40
2022-08-12T12:04:30.223Z,47.40
2022-08-12T12:07:16.728Z,47.70
2022-08-12T12:10:05.506Z,47.70
2022-08-12T12:12:53.945Z,47.60
2022-08-12T12:15:41.406Z,47.20
2022-08-12T12:18:31.406Z,47.70
2022-08-12T12:21:18.215Z,47.60
2022-08-12T12:24:24.702Z,47.50
2022-08-12T12:27:19.404Z,46.90
2022-08-12T12:30:17.509Z,47.20
2022-08-12T12:33:18.083Z,47.00
2022-08-12T12:36:18.581Z,47.40
2022-08-12T12:39:10.559Z,47.30
2022-08-12T12:42:43.086Z,47.40
2022-08-12T12:45:19.758Z,46.50
2022-08-12T12:48:14.214Z,47.00
2022-08-12T12:51:49.399Z,47.40
2022-08-12T12:54:26.059Z,48.40
2022-08-12T12:57:16.851Z,47.10
2022-08-12T13:00:16.619Z,47.10
2022-08-12T13:03:03.671Z,47.30
2022-08-12T13:05:53.947Z,47.50
2022-08-12T13:08:43.214Z,47.30
2022-08-12T13:11:42.139Z,47.70
2022-08-12T13:14:31.665Z,47.90
2022-08-12T13:17:23.556Z,48.10
2022-08-12T13:20:11.330Z,48.10
2022-08-12T13:23:35.965Z,47.90
2022-08-12T13:26:24.494Z,47.90
2022-08-12T13:29:12.875Z,47.80
2022-08-12T13:32:19.857Z,47.70
2022-08-12T13:35:20.259Z,47.60
2022-08-12T13:38:34.541Z,48.40
2022-08-12T13:41:33.562Z,47.60
2022-08-12T13:44:20.156Z,47.20
2022-08-12T13:47:18.373Z,47.10
2022-08-12T13:50:05.768Z,46.80
2022-08-12T13:52:57.435Z,46.80
2022-08-12T13:55:47.120Z,47.20
2022-08-12T13:58:37.407Z,47.30
2022-08-12T14:01:24.350Z,47.40
2022-08-12T14:04:12.193Z,47.30
2022-08-12T14:07:02.852Z,47.20
2022-08-12T14:10:08.361Z,47.00
2022-08-12T14:12:57.485Z,46.80
2022-08-12T14:15:47.802Z,46.90
2022-08-12T14:18:35.558Z,47.10
2022-08-12T14:21:26.873Z,47.20
2022-08-12T14:24:15.161Z,47.30
2022-08-12T14:27:08.674Z,47.40
2022-08-12T14:30:06.043Z,47.20
2022-08-12T14:33:03.347Z,47.30
2022-08-12T14:35:50.489Z,47.10
2022-08-12T14:38:40.352Z,46.90
2022-08-12T14:41:37.003Z,46.80
2022-08-12T14:44:57.249Z,47.00
2022-08-12T14:47:58.564Z,47.30
2022-08-12T14:51:02.627Z,47.60
2022-08-12T14:56:08.904Z,47.20
2022-08-12T14:57:20.627Z,46.90
2022-08-12T15:00:25.619Z,47.10
2022-08-12T15:03:13.555Z,47.00
2022-08-12T15:06:06.179Z,46.60
2022-08-12T15:09:12.154Z,46.60
2022-08-12T15:12:03.687Z,46.80
2022-08-12T15:14:51.504Z,46.70
2022-08-12T15:17:40.213Z,46.90
2022-08-12T15:20:33.455Z,47.20
2022-08-12T15:23:28.915Z,46.90
2022-08-12T15:26:21.208Z,47.10
2022-08-12T15:29:14.500Z,47.00
2022-08-12T15:32:07.677Z,47.40
2022-08-12T15:35:03.873Z,47.30
2022-08-12T15:38:18.768Z,46.90
2022-08-12T15:41:07.156Z,46.80
2022-08-12T15:44:37.406Z,46.70
2022-08-12T15:47:03.261Z,46.50
2022-08-12T15:49:59.901Z,46.50
2022-08-12T15:52:49.496Z,46.60
2022-08-12T15:55:36.333Z,46.70
2022-08-12T15:58:33.814Z,46.90
2022-08-12T16:01:21.068Z,47.00
2022-08-12T16:04:12.922Z,46.80
2022-08-12T16:07:06.071Z,46.70
2022-08-12T16:10:05.568Z,46.70
2022-08-12T16:12:56.361Z,47.10
2022-08-12T16:15:51.143Z,47.40
2022-08-12T16:18:49.606Z,47.20
2022-08-12T16:21:51.818Z,47.90
2022-08-12T16:24:44.652Z,47.40
2022-08-12T16:27:38.515Z,47.50
2022-08-12T16:30:31.409Z,47.70
2022-08-12T16:33:19.797Z,47.70
2022-08-12T16:36:11.361Z,47.90
2022-08-12T16:39:01.363Z,48.00
2022-08-12T16:41:49.048Z,48.30
2022-08-12T16:44:43.014Z,48.40
2022-08-12T16:47:57.564Z,48.30
2022-08-12T16:50:49.092Z,48.50
2022-08-12T16:53:44.023Z,48.70
2022-08-12T16:56:33.728Z,48.80
2022-08-12T16:59:26.259Z,48.80
2022-08-12T17:02:31.392Z,48.70
2022-08-12T17:05:21.121Z,48.70
2022-08-12T17:08:08.596Z,49.30
2022-08-12T17:10:55.687Z,49.10
2022-08-12T17:13:53.564Z,49.00
2022-08-12T17:16:41.397Z,49.30
2022-08-12T17:20:29.111Z,48.90
2022-08-12T17:22:38.908Z,48.30
2022-08-12T17:25:26.316Z,48.00
2022-08-12T17:28:17.181Z,48.30
2022-08-12T17:31:05.112Z,48.30
2022-08-12T17:33:55.502Z,48.30
2022-08-12T17:36:45.506Z,48.70
2022-08-12T17:40:15.546Z,48.70
2022-08-12T17:42:47.866Z,48.40
2022-08-12T17:45:34.964Z,47.90
2022-08-12T17:48:24.353Z,47.90
2022-08-12T17:51:22.118Z,47.90
2022-08-12T17:54:12.934Z,47.60
2022-08-12T17:57:00.215Z,47.80
2022-08-12T17:59:49.746Z,47.70
2022-08-12T18:02:38.702Z,47.80
2022-08-12T18:05:43.500Z,48.00
2022-08-12T18:08:35.708Z,47.70
2022-08-12T18:12:06.398Z,47.80
2022-08-12T18:14:55.369Z,48.00
2022-08-12T18:17:47.310Z,48.10
2022-08-12T18:20:36.692Z,47.60
2022-08-12T18:23:26.134Z,47.80
2022-08-12T18:26:26.981Z,48.00
2022-08-12T18:29:15.913Z,47.90
2022-08-12T18:32:17.917Z,47.80
2022-08-12T18:35:11.281Z,48.00
2022-08-12T18:37:59.429Z,48.20
2022-08-12T18:41:06.144Z,48.20
2022-08-12T18:43:59.817Z,48.60
2022-08-12T18:46:55.397Z,48.60
2022-08-12T18:49:47.321Z,49.00
2022-08-12T18:52:38.949Z,49.30
2022-08-12T18:55:37.481Z,49.80
2022-08-12T18:58:30.350Z,49.80
2022-08-12T19:02:18.892Z,49.70
2022-08-12T19:04:29.188Z,50.00
2022-08-12T19:07:21.745Z,50.40
2022-08-12T19:10:10.275Z,50.90
2022-08-12T19:13:24.322Z,51.20
2022-08-12T19:16:12.393Z,51.50
2022-08-12T19:19:00.993Z,51.90
2022-08-12T19:21:56.607Z,52.50
2022-08-12T19:25:01.165Z,52.70
2022-08-12T19:27:51.749Z,53.40
2022-08-12T19:30:56.251Z,53.50
2022-08-12T19:34:06.287Z,54.00
2022-08-12T19:36:52.049Z,54.50
2022-08-12T19:40:09.573Z,54.90
2022-08-12T19:42:48.540Z,55.10
2022-08-12T19:45:48.317Z,55.60
2022-08-12T19:48:35.770Z,55.60
2022-08-12T19:51:33.210Z,55.40
2022-08-12T19:54:22.941Z,55.60
2022-08-12T19:57:10.578Z,56.10
2022-08-12T20:00:04.029Z,56.60
2022-08-12T20:02:54.029Z,56.80
2022-08-12T20:06:05.881Z,57.20
2022-08-12T20:08:56.100Z,57.10
2022-08-12T20:12:11.452Z,57.50
2022-08-12T20:14:53.446Z,57.60
2022-08-12T20:17:51.061Z,58.10
2022-08-12T20:20:38.888Z,58.60
2022-08-12T20:23:50.191Z,58.80
2022-08-12T20:26:34.824Z,59.20
2022-08-12T20:29:26.202Z,59.60
2022-08-12T20:32:29.487Z,59.60
2022-08-12T20:35:39.087Z,59.50
2022-08-12T20:38:32.624Z,59.20
2022-08-12T20:41:21.961Z,59.40
2022-08-12T20:44:16.943Z,60.00
2022-08-12T20:47:16.604Z,59.60
2022-08-12T20:50:08.003Z,59.60
2022-08-12T20:52:55.405Z,59.60
2022-08-12T20:55:44.313Z,59.20
2022-08-12T20:58:44.155Z,58.80
2022-08-12T21:01:45.893Z,58.80
2022-08-12T21:04:53.112Z,58.60
2022-08-12T21:07:47.627Z,58.40
2022-08-12T21:10:38.282Z,58.80
2022-08-12T21:13:26.463Z,58.40
2022-08-12T21:16:44.805Z,58.50
2022-08-12T21:19:51.959Z,58.60
2022-08-12T21:22:43.137Z,58.70
2022-08-12T21:25:45.157Z,58.60
2022-08-12T21:28:33.487Z,58.50
2022-08-12T21:32:40.228Z,58.40
2022-08-12T21:34:30.803Z,58.40
2022-08-12T21:37:27.508Z,58.30
2022-08-12T21:40:15.343Z,58.40
2022-08-12T21:43:04.227Z,58.50
2022-08-12T21:46:01.163Z,58.40
2022-08-12T21:48:52.158Z,58.60
2022-08-12T21:51:49.229Z,58.50
2022-08-12T21:54:42.602Z,58.60
2022-08-12T21:57:36.280Z,58.70
2022-08-12T22:00:39.685Z,58.80
2022-08-12T22:04:04.009Z,58.90
2022-08-12T22:06:53.307Z,59.00
2022-08-12T22:09:43.457Z,59.30
2022-08-12T22:12:34.661Z,59.50
2022-08-12T22:15:24.585Z,59.80
2022-08-12T22:18:12.839Z,59.90
2022-08-12T22:21:02.407Z,60.20
2022-08-12T22:23:52.317Z,60.10
2022-08-12T22:26:53.691Z,60.20
2022-08-12T22:29:57.609Z,60.40
2022-08-12T22:32:49.816Z,60.70
2022-08-12T22:35:56.365Z,60.70
2022-08-12T22:38:46.092Z,60.80
2022-08-12T22:41:56.860Z,60.90
2022-08-12T22:45:03.669Z,61.30
2022-08-12T22:47:56.063Z,61.70
2022-08-12T22:50:43.014Z,61.90
2022-08-12T22:53:36.430Z,62.40
2022-08-12T22:56:30.804Z,62.70
2022-08-12T22:59:18.086Z,62.90
2022-08-12T23:02:11.324Z,63.80
2022-08-12T23:04:58.921Z,64.40
2022-08-12T23:07:58.793Z,64.80
2022-08-12T23:10:47.456Z,65.20
2022-08-12T23:13:55.387Z,65.90
2022-08-12T23:16:43.365Z,66.50
2022-08-12T23:19:38.436Z,67.20
2022-08-12T23:22:36.115Z,67.70
2022-08-12T23:25:54.131Z,68.10
2022-08-12T23:28:52.592Z,68.70
2022-08-12T23:32:03.180Z,69.60
2022-08-12T23:34:48.067Z,69.70
2022-08-12T23:37:47.595Z,70.20
2022-08-12T23:40:40.555Z,71.40
2022-08-12T23:43:39.130Z,72.50
2022-08-12T23:46:27.329Z,73.30
2022-08-12T23:49:55.320Z,74.10
2022-08-12T23:52:21.690Z,74.70
2022-08-12T23:55:24.610Z,75.20
2022-08-12T23:58:20.849Z,75.20
